Terminal Aerodrome Forecast
Issued by NWS Wilmington, OH

Current Version | Previous Version | Graphics & Text | Print | Product List | Glossary On
Versions: 1 2 3 4 5 6 7 8 9 10 11 12 13 14 15
820
FTUS41 KILN 282331
TAFCMH
TAF
KCMH 282331Z 2900/2924 VRB04KT P6SM SCT100
      TEMPO 2900/2901 VRB15G23KT 5SM -TSRA BKN050CB
     FM290400 VRB03KT P6SM BKN200
     FM291200 20006KT P6SM VCSH BKN060
     FM291600 20008KT P6SM SCT100 BKN200=

USA.gov is the U.S. government's official web portal to all federal, state and local government web resources and services.